createdAt,value
2023-03-07T00:01:12.187Z,9.90
2023-03-07T00:03:40.577Z,9.90
2023-03-07T00:06:12.181Z,9.80
2023-03-07T00:08:40.762Z,9.80
2023-03-07T00:11:10.704Z,9.80
2023-03-07T00:13:40.004Z,9.80
2023-03-07T00:16:10.386Z,9.80
2023-03-07T00:18:38.885Z,9.80
2023-03-07T00:21:10.820Z,9.70
2023-03-07T00:23:41.367Z,9.70
2023-03-07T00:26:13.234Z,9.70
2023-03-07T00:28:41.686Z,9.70
2023-03-07T00:31:12.232Z,9.70
2023-03-07T00:33:41.666Z,9.60
2023-03-07T00:36:14.598Z,9.60
2023-03-07T00:38:43.980Z,9.60
2023-03-07T00:41:14.339Z,9.50
2023-03-07T00:43:43.304Z,9.50
2023-03-07T00:46:11.895Z,9.50
2023-03-07T00:48:41.214Z,9.50
2023-03-07T00:51:12.689Z,9.40
2023-03-07T00:53:41.563Z,9.40
2023-03-07T00:56:15.280Z,9.30
2023-03-07T00:58:43.939Z,9.20
2023-03-07T01:01:15.085Z,9.20
2023-03-07T01:03:44.197Z,9.10
2023-03-07T01:06:16.596Z,9.10
2023-03-07T01:08:45.626Z,9.10
2023-03-07T01:11:14.589Z,9.00
2023-03-07T01:13:42.938Z,8.90
2023-03-07T01:16:14.024Z,8.90
2023-03-07T01:18:42.641Z,8.80
2023-03-07T01:21:18.535Z,8.80
2023-03-07T01:23:47.529Z,8.70
2023-03-07T01:26:17.289Z,8.60
2023-03-07T01:28:45.721Z,8.60
2023-03-07T01:31:14.625Z,8.50
2023-03-07T01:33:43.125Z,8.50
2023-03-07T01:36:20.149Z,8.40
2023-03-07T01:38:49.367Z,8.40
2023-03-07T01:41:18.678Z,8.40
2023-03-07T01:43:46.976Z,8.40
2023-03-07T01:46:42.597Z,8.30
2023-03-07T01:49:19.634Z,8.30
2023-03-07T01:51:52.464Z,8.30
2023-03-07T01:54:23.215Z,8.20
2023-03-07T01:56:52.232Z,8.20
2023-03-07T01:59:29.566Z,8.20
2023-03-07T02:02:01.462Z,8.10
2023-03-07T02:04:34.990Z,8.10
2023-03-07T02:07:05.118Z,8.10
2023-03-07T02:09:36.656Z,8.00
2023-03-07T02:12:05.795Z,8.00
2023-03-07T02:14:34.385Z,8.00
2023-03-07T02:17:02.775Z,8.00
2023-03-07T02:19:44.345Z,7.90
2023-03-07T02:22:17.457Z,7.90
2023-03-07T02:24:52.781Z,7.90
2023-03-07T02:27:23.598Z,7.90
2023-03-07T02:29:51.906Z,7.90
2023-03-07T02:32:20.357Z,7.90
2023-03-07T02:34:49.617Z,7.80
2023-03-07T02:37:22.571Z,7.80
2023-03-07T02:39:50.976Z,7.80
2023-03-07T02:42:23.517Z,7.80
2023-03-07T02:44:58.500Z,7.70
2023-03-07T02:47:27.241Z,7.70
2023-03-07T02:49:55.724Z,7.70
2023-03-07T02:52:24.729Z,7.70
2023-03-07T02:54:53.057Z,7.70
2023-03-07T02:57:22.838Z,7.70
2023-03-07T02:59:51.371Z,7.70
2023-03-07T03:02:19.746Z,7.70
2023-03-07T03:04:48.160Z,7.60
2023-03-07T03:07:16.513Z,7.60
2023-03-07T03:09:47.736Z,7.60
2023-03-07T03:12:16.169Z,7.60
2023-03-07T03:14:45.916Z,7.50
2023-03-07T03:17:14.578Z,7.50
2023-03-07T03:19:42.923Z,7.50
2023-03-07T03:22:11.257Z,7.50
2023-03-07T03:24:40.901Z,7.50
2023-03-07T03:27:09.482Z,7.40
2023-03-07T03:29:38.032Z,7.40
2023-03-07T03:32:08.726Z,7.40
2023-03-07T03:34:37.148Z,7.40
2023-03-07T03:37:07.999Z,7.40
2023-03-07T03:39:36.343Z,7.30
2023-03-07T03:42:06.305Z,7.40
2023-03-07T03:44:34.695Z,7.30
2023-03-07T03:47:03.013Z,7.30
2023-03-07T03:49:33.203Z,7.30
2023-03-07T03:52:01.716Z,7.30
2023-03-07T03:54:31.007Z,7.30
2023-03-07T03:56:59.420Z,7.30
2023-03-07T03:59:28.010Z,7.30
2023-03-07T04:01:56.307Z,7.30
2023-03-07T04:04:24.649Z,7.30
2023-03-07T04:06:54.436Z,7.30
2023-03-07T04:09:22.740Z,7.30
2023-03-07T04:11:51.118Z,7.30
2023-03-07T04:14:19.371Z,7.30
2023-03-07T04:16:48.666Z,7.30
2023-03-07T04:19:17.272Z,7.30
2023-03-07T04:21:45.659Z,7.30
2023-03-07T04:24:15.366Z,7.30
2023-03-07T04:26:43.781Z,7.30
2023-03-07T04:29:12.228Z,7.40
2023-03-07T04:31:40.572Z,7.40
2023-03-07T04:34:08.880Z,7.40
2023-03-07T04:36:37.192Z,7.40
2023-03-07T04:39:05.854Z,7.50
2023-03-07T04:41:35.709Z,7.50
2023-03-07T04:44:04.026Z,7.50
2023-03-07T04:46:32.433Z,7.60
2023-03-07T04:49:00.701Z,7.60
2023-03-07T04:51:29.060Z,7.60
2023-03-07T04:53:57.314Z,7.60
2023-03-07T04:56:26.110Z,7.60
2023-03-07T04:58:55.800Z,7.60
2023-03-07T05:01:24.270Z,7.60
2023-03-07T05:03:52.625Z,7.70
2023-03-07T05:06:21.227Z,7.70
2023-03-07T05:08:49.784Z,7.70
2023-03-07T05:11:18.140Z,7.70
2023-03-07T05:13:46.594Z,7.70
2023-03-07T05:16:17.720Z,7.70
2023-03-07T05:18:46.095Z,7.70
2023-03-07T05:21:14.505Z,7.70
2023-03-07T05:23:42.807Z,7.70
2023-03-07T05:26:11.209Z,7.70
2023-03-07T05:28:39.754Z,7.70
2023-03-07T05:31:08.153Z,7.70
2023-03-07T05:33:38.021Z,7.70
2023-03-07T05:36:06.854Z,7.80
2023-03-07T05:38:35.386Z,7.80
2023-03-07T05:41:03.714Z,7.80
2023-03-07T05:43:31.997Z,7.80
2023-03-07T05:46:00.473Z,7.80
2023-03-07T05:48:28.889Z,7.90
2023-03-07T05:51:00.635Z,7.90
2023-03-07T05:53:29.209Z,7.90
2023-03-07T05:55:59.497Z,7.90
2023-03-07T05:58:30.986Z,7.90
2023-03-07T06:00:59.418Z,8.00
2023-03-07T06:03:27.859Z,8.00
2023-03-07T06:05:56.175Z,8.00
2023-03-07T06:08:25.987Z,8.00
2023-03-07T06:10:55.546Z,8.10
2023-03-07T06:13:27.141Z,8.20
2023-03-07T06:15:56.721Z,8.20
2023-03-07T06:18:26.865Z,8.30
2023-03-07T06:20:59.828Z,8.40
2023-03-07T06:23:31.448Z,8.50
2023-03-07T06:25:59.996Z,8.60
2023-03-07T06:28:29.042Z,8.70
2023-03-07T06:30:58.382Z,8.80
2023-03-07T06:33:26.894Z,8.90
2023-03-07T06:35:55.269Z,9.00
2023-03-07T06:38:24.068Z,9.10
2023-03-07T06:40:58.076Z,9.20
2023-03-07T06:43:26.498Z,9.30
2023-03-07T06:45:55.141Z,9.40
2023-03-07T06:48:23.619Z,9.40
2023-03-07T06:50:51.998Z,9.50
2023-03-07T06:53:20.880Z,9.50
2023-03-07T06:55:51.019Z,9.60
2023-03-07T06:58:20.965Z,9.70
2023-03-07T07:00:49.314Z,9.80
2023-03-07T07:03:19.764Z,9.90
2023-03-07T07:05:48.414Z,9.90
2023-03-07T07:08:16.798Z,10.00
2023-03-07T07:10:45.052Z,10.10
2023-03-07T07:13:13.669Z,10.20
2023-03-07T07:15:43.405Z,10.30
2023-03-07T07:18:14.575Z,10.30
2023-03-07T07:20:43.052Z,10.40
2023-03-07T07:23:13.997Z,10.50
2023-03-07T07:25:57.430Z,10.60
2023-03-07T07:28:26.524Z,10.70
2023-03-07T07:30:56.316Z,10.80
2023-03-07T07:33:24.738Z,10.90
2023-03-07T07:35:53.328Z,10.90
2023-03-07T07:38:21.674Z,11.10
2023-03-07T07:40:50.070Z,11.10
2023-03-07T07:43:19.293Z,11.20
2023-03-07T07:45:47.798Z,11.30
2023-03-07T07:48:17.528Z,11.40
2023-03-07T07:50:46.136Z,11.50
2023-03-07T07:53:17.051Z,11.50
2023-03-07T07:55:46.100Z,11.60
2023-03-07T07:58:14.504Z,11.70
2023-03-07T08:00:42.886Z,11.70
2023-03-07T08:03:11.282Z,11.70
2023-03-07T08:05:45.787Z,11.80
2023-03-07T08:08:14.137Z,11.90
2023-03-07T08:10:44.318Z,12.00
2023-03-07T08:13:14.189Z,12.00
2023-03-07T08:15:52.663Z,12.10
2023-03-07T08:18:21.100Z,12.20
2023-03-07T08:20:50.821Z,12.30
2023-03-07T08:23:19.301Z,12.30
2023-03-07T08:25:47.617Z,12.40
2023-03-07T08:28:15.974Z,12.50
2023-03-07T08:30:44.344Z,12.60
2023-03-07T08:33:12.806Z,12.70
2023-03-07T08:35:41.382Z,12.70
2023-03-07T08:38:11.462Z,12.70
2023-03-07T08:40:40.222Z,12.80
2023-03-07T08:43:08.617Z,12.90
2023-03-07T08:45:39.239Z,12.90
2023-03-07T08:48:08.047Z,13.00
2023-03-07T08:50:36.539Z,13.10
2023-03-07T08:53:04.996Z,13.10
2023-03-07T08:55:38.237Z,13.20
2023-03-07T08:58:06.566Z,13.30
2023-03-07T09:00:34.988Z,13.40
2023-03-07T09:03:03.385Z,13.40
2023-03-07T09:05:31.982Z,13.50
2023-03-07T09:08:00.372Z,13.60
2023-03-07T09:10:28.845Z,13.70
2023-03-07T09:12:58.765Z,13.70
2023-03-07T09:15:27.294Z,13.80
2023-03-07T09:17:56.795Z,13.90
2023-03-07T09:20:25.328Z,14.00
2023-03-07T09:22:54.402Z,14.10
2023-03-07T09:25:22.993Z,14.20
2023-03-07T09:27:52.039Z,14.30
2023-03-07T09:30:22.807Z,14.40
2023-03-07T09:32:51.673Z,14.50
2023-03-07T09:35:20.203Z,14.70
2023-03-07T09:37:48.529Z,14.70
2023-03-07T09:40:19.979Z,14.80
2023-03-07T09:42:57.366Z,14.90
2023-03-07T09:45:42.813Z,15.00
2023-03-07T09:48:36.308Z,15.20
2023-03-07T09:51:13.105Z,15.20
2023-03-07T09:53:49.221Z,15.30
2023-03-07T09:56:23.605Z,15.40
2023-03-07T09:58:59.681Z,15.50
2023-03-07T10:01:33.076Z,15.60
2023-03-07T10:04:04.527Z,15.70
2023-03-07T10:06:38.872Z,15.70
2023-03-07T10:09:12.245Z,15.80
2023-03-07T10:12:04.907Z,15.90
2023-03-07T10:14:50.069Z,16.00
2023-03-07T10:17:31.598Z,16.10
2023-03-07T10:20:09.202Z,16.30
2023-03-07T10:22:45.021Z,16.30
2023-03-07T10:25:21.738Z,16.50
2023-03-07T10:27:54.495Z,16.60
2023-03-07T10:30:23.140Z,16.70
2023-03-07T10:32:58.397Z,16.70
2023-03-07T10:35:39.353Z,16.80
2023-03-07T10:38:19.564Z,16.80
2023-03-07T10:40:53.430Z,16.90
2023-03-07T10:43:25.786Z,16.90
2023-03-07T10:45:59.934Z,17.00
2023-03-07T10:48:31.362Z,17.00
2023-03-07T10:51:10.246Z,16.90
2023-03-07T10:53:40.672Z,17.00
2023-03-07T10:56:15.489Z,17.00
2023-03-07T10:59:09.502Z,17.10
2023-03-07T11:01:39.776Z,17.10
2023-03-07T11:04:21.404Z,17.10
2023-03-07T11:06:54.012Z,17.10
2023-03-07T11:09:29.279Z,17.20
2023-03-07T11:12:00.236Z,17.30
2023-03-07T11:14:31.027Z,17.40
2023-03-07T11:17:00.611Z,17.40
2023-03-07T11:19:37.177Z,17.50
2023-03-07T11:22:17.513Z,17.60
2023-03-07T11:24:51.296Z,17.60
2023-03-07T11:27:24.615Z,17.70
2023-03-07T11:30:25.227Z,17.70
2023-03-07T11:33:06.562Z,17.80
2023-03-07T11:35:50.040Z,17.80
2023-03-07T11:38:28.665Z,17.90
2023-03-07T11:41:04.171Z,17.90
2023-03-07T11:43:55.451Z,17.90
2023-03-07T11:46:35.919Z,18.00
2023-03-07T11:49:21.394Z,18.00
2023-03-07T11:52:04.455Z,18.10
2023-03-07T11:54:42.758Z,18.10
2023-03-07T11:57:25.237Z,18.20
2023-03-07T12:00:21.168Z,18.30
2023-03-07T12:03:07.014Z,18.30
2023-03-07T12:05:46.887Z,18.50
2023-03-07T12:08:44.604Z,18.50
2023-03-07T12:11:26.647Z,18.60
2023-03-07T12:14:07.265Z,18.60
2023-03-07T12:16:46.668Z,18.70
2023-03-07T12:19:32.887Z,18.80
2023-03-07T12:22:24.359Z,18.80
2023-03-07T12:25:03.660Z,18.90
2023-03-07T12:27:36.704Z,18.90
2023-03-07T12:30:15.257Z,18.90
2023-03-07T12:32:44.104Z,18.90
2023-03-07T12:35:23.960Z,19.00
2023-03-07T12:37:58.041Z,19.00
2023-03-07T12:40:35.536Z,19.00
2023-03-07T12:43:12.239Z,19.20
2023-03-07T12:45:48.627Z,19.30
2023-03-07T12:48:24.484Z,19.40
2023-03-07T12:51:00.270Z,19.60
2023-03-07T12:53:36.766Z,19.70
2023-03-07T12:56:15.443Z,19.80
2023-03-07T12:58:48.846Z,20.00
2023-03-07T13:01:22.764Z,20.10
2023-03-07T13:03:57.423Z,20.10
2023-03-07T13:06:26.428Z,20.20
2023-03-07T13:08:58.922Z,20.20
2023-03-07T13:11:30.467Z,20.30
2023-03-07T13:14:00.013Z,20.40
2023-03-07T13:16:37.474Z,20.50
2023-03-07T13:19:43.056Z,20.60
2023-03-07T13:22:44.673Z,20.70
2023-03-07T13:25:44.218Z,20.90
2023-03-07T13:28:36.872Z,21.00
2023-03-07T13:31:37.581Z,21.00
2023-03-07T13:34:51.834Z,21.20
2023-03-07T13:37:54.013Z,21.40
2023-03-07T13:40:31.526Z,21.50
2023-03-07T13:42:59.903Z,21.60
2023-03-07T13:46:00.098Z,21.90
2023-03-07T13:49:04.045Z,22.40
2023-03-07T13:51:32.421Z,22.60
2023-03-07T13:54:04.388Z,22.70
2023-03-07T13:56:37.580Z,22.70
2023-03-07T13:59:18.107Z,22.60
2023-03-07T14:01:51.088Z,22.80
2023-03-07T14:04:38.414Z,23.10
2023-03-07T14:07:29.859Z,22.90
2023-03-07T14:10:03.858Z,23.00
2023-03-07T14:12:52.119Z,22.90
2023-03-07T14:15:26.114Z,22.80
2023-03-07T14:18:13.893Z,22.90
2023-03-07T14:20:53.249Z,22.70
2023-03-07T14:23:40.936Z,22.30
2023-03-07T14:26:14.413Z,22.20
2023-03-07T14:28:50.040Z,22.00
2023-03-07T14:31:25.683Z,21.70
2023-03-07T14:33:55.516Z,21.50
2023-03-07T14:36:26.294Z,21.30
2023-03-07T14:38:58.154Z,21.10
2023-03-07T14:41:36.879Z,20.90
2023-03-07T14:44:25.577Z,20.70
2023-03-07T14:47:07.152Z,20.50
2023-03-07T14:49:46.004Z,20.40
2023-03-07T14:52:29.936Z,20.30
2023-03-07T14:55:02.782Z,20.00
2023-03-07T14:57:34.824Z,19.90
2023-03-07T15:00:16.909Z,19.90
2023-03-07T15:02:52.965Z,20.00
2023-03-07T15:05:25.041Z,20.10
2023-03-07T15:07:56.978Z,20.00
2023-03-07T15:10:40.914Z,19.90
2023-03-07T15:13:18.042Z,19.90
2023-03-07T15:16:00.215Z,19.80
2023-03-07T15:18:35.834Z,19.80
2023-03-07T15:21:21.784Z,19.70
2023-03-07T15:23:55.323Z,19.70
2023-03-07T15:26:26.735Z,19.50
2023-03-07T15:29:00.935Z,19.40
2023-03-07T15:31:32.246Z,19.30
2023-03-07T15:34:21.298Z,19.20
2023-03-07T15:36:51.114Z,19.00
2023-03-07T15:39:40.403Z,18.90
2023-03-07T15:42:09.994Z,18.80
2023-03-07T15:44:38.996Z,18.70
2023-03-07T15:47:17.060Z,18.60
2023-03-07T15:49:48.565Z,18.50
2023-03-07T15:52:33.470Z,18.50
2023-03-07T15:55:05.432Z,18.40
2023-03-07T15:57:38.524Z,18.30
2023-03-07T16:00:09.902Z,18.20
2023-03-07T16:02:45.749Z,18.10
2023-03-07T16:05:33.038Z,18.00
2023-03-07T16:08:03.259Z,17.90
2023-03-07T16:10:33.335Z,17.90
2023-03-07T16:13:03.155Z,17.80
2023-03-07T16:15:31.638Z,17.70
2023-03-07T16:18:00.000Z,17.70
2023-03-07T16:20:30.364Z,17.60
2023-03-07T16:22:59.141Z,17.50
2023-03-07T16:25:32.218Z,17.40
2023-03-07T16:28:00.928Z,17.30
2023-03-07T16:30:30.986Z,17.20
2023-03-07T16:32:59.355Z,17.20
2023-03-07T16:35:30.215Z,17.10
2023-03-07T16:37:59.346Z,17.00
2023-03-07T16:40:29.870Z,16.90
2023-03-07T16:42:58.309Z,16.90
2023-03-07T16:45:29.054Z,16.80
2023-03-07T16:47:58.697Z,16.80
2023-03-07T16:50:29.133Z,16.70
2023-03-07T16:52:57.534Z,16.60
2023-03-07T16:55:26.855Z,16.60
2023-03-07T16:58:00.701Z,16.60
2023-03-07T17:00:29.689Z,16.40
2023-03-07T17:03:02.177Z,16.40
2023-03-07T17:05:31.095Z,16.30
2023-03-07T17:08:00.451Z,16.30
2023-03-07T17:10:29.805Z,16.30
2023-03-07T17:13:02.323Z,16.20
2023-03-07T17:15:32.236Z,16.20
2023-03-07T17:18:01.100Z,16.20
2023-03-07T17:20:29.721Z,16.10
2023-03-07T17:22:58.382Z,16.10
2023-03-07T17:25:27.979Z,16.10
2023-03-07T17:28:01.433Z,16.00
2023-03-07T17:30:31.680Z,16.00
2023-03-07T17:33:01.067Z,16.00
2023-03-07T17:35:30.707Z,15.90
2023-03-07T17:37:59.351Z,15.90
2023-03-07T17:40:27.758Z,15.80
2023-03-07T17:42:57.454Z,15.80
2023-03-07T17:45:27.532Z,15.80
2023-03-07T17:47:57.008Z,15.70
2023-03-07T17:50:25.799Z,15.70
2023-03-07T17:52:55.494Z,15.70
2023-03-07T17:55:26.067Z,15.60
2023-03-07T17:57:54.655Z,15.60
2023-03-07T18:00:23.866Z,15.60
2023-03-07T18:02:53.844Z,15.50
2023-03-07T18:05:24.486Z,15.50
2023-03-07T18:07:53.689Z,15.50
2023-03-07T18:10:23.041Z,15.40
2023-03-07T18:12:53.644Z,15.40
2023-03-07T18:15:23.182Z,15.40
2023-03-07T18:17:51.968Z,15.30
2023-03-07T18:20:22.641Z,15.30
2023-03-07T18:22:51.046Z,15.30
2023-03-07T18:25:19.754Z,15.20
2023-03-07T18:27:48.167Z,15.20
2023-03-07T18:30:17.260Z,15.20
2023-03-07T18:32:45.784Z,15.20
2023-03-07T18:35:15.677Z,15.10
2023-03-07T18:37:45.728Z,15.10
2023-03-07T18:40:14.857Z,15.00
2023-03-07T18:42:43.566Z,15.00
2023-03-07T18:45:13.073Z,15.00
2023-03-07T18:47:41.483Z,15.00
2023-03-07T18:50:11.365Z,14.90
2023-03-07T18:52:39.823Z,14.90
2023-03-07T18:55:10.587Z,14.80
2023-03-07T18:57:38.923Z,14.80
2023-03-07T19:00:10.203Z,14.80
2023-03-07T19:02:39.932Z,14.80
2023-03-07T19:05:09.263Z,14.70
2023-03-07T19:07:37.908Z,14.70
2023-03-07T19:10:07.514Z,14.70
2023-03-07T19:12:37.269Z,14.60
2023-03-07T19:15:06.519Z,14.60
2023-03-07T19:17:40.666Z,14.50
2023-03-07T19:20:12.644Z,14.50
2023-03-07T19:22:41.005Z,14.40
2023-03-07T19:25:10.973Z,14.40
2023-03-07T19:27:40.763Z,14.40
2023-03-07T19:30:11.417Z,14.40
2023-03-07T19:32:39.828Z,14.30
2023-03-07T19:35:09.071Z,14.30
2023-03-07T19:37:37.561Z,14.20
2023-03-07T19:40:06.981Z,14.20
2023-03-07T19:42:35.417Z,14.20
2023-03-07T19:45:05.923Z,14.20
2023-03-07T19:47:34.385Z,14.10
2023-03-07T19:50:02.979Z,14.10
2023-03-07T19:52:31.472Z,14.00
2023-03-07T19:54:59.809Z,14.10
2023-03-07T19:57:28.126Z,14.00
2023-03-07T19:59:56.709Z,13.90
2023-03-07T20:02:29.419Z,14.00
2023-03-07T20:04:58.820Z,13.90
2023-03-07T20:07:27.377Z,13.90
2023-03-07T20:09:55.728Z,13.90
2023-03-07T20:12:24.158Z,13.90
2023-03-07T20:14:52.604Z,13.80
2023-03-07T20:17:20.940Z,13.80
2023-03-07T20:19:53.040Z,13.70
2023-03-07T20:22:23.485Z,13.70
2023-03-07T20:24:52.264Z,13.70
2023-03-07T20:27:23.583Z,13.70
2023-03-07T20:29:52.426Z,13.70
2023-03-07T20:32:21.191Z,13.60
2023-03-07T20:34:53.969Z,13.60
2023-03-07T20:37:22.492Z,13.60
2023-03-07T20:39:50.888Z,13.60
2023-03-07T20:42:19.163Z,13.50
2023-03-07T20:44:47.519Z,13.50
2023-03-07T20:47:15.877Z,13.50
2023-03-07T20:49:44.259Z,13.50
2023-03-07T20:52:14.039Z,13.50
2023-03-07T20:54:42.396Z,13.40
2023-03-07T20:57:10.862Z,13.40
2023-03-07T20:59:39.312Z,13.40
2023-03-07T21:02:07.812Z,13.40
2023-03-07T21:04:36.148Z,13.30
2023-03-07T21:07:05.406Z,13.30
2023-03-07T21:09:35.297Z,13.30
2023-03-07T21:12:04.277Z,13.20
2023-03-07T21:14:32.640Z,13.20
2023-03-07T21:17:02.754Z,13.20
2023-03-07T21:19:31.144Z,13.10
2023-03-07T21:22:00.417Z,13.10
2023-03-07T21:24:28.829Z,13.10
2023-03-07T21:26:59.298Z,13.10
2023-03-07T21:29:27.711Z,13.10
2023-03-07T21:31:58.568Z,13.10
2023-03-07T21:34:27.322Z,13.10
2023-03-07T21:36:56.400Z,13.00
2023-03-07T21:39:25.815Z,13.00
2023-03-07T21:41:54.614Z,13.00
2023-03-07T21:44:24.484Z,13.00
2023-03-07T21:46:52.806Z,13.00
2023-03-07T21:49:21.132Z,13.00
2023-03-07T21:51:49.472Z,13.00
2023-03-07T21:54:17.839Z,12.90
2023-03-07T21:56:46.312Z,12.90
2023-03-07T21:59:14.619Z,12.90
2023-03-07T22:01:44.438Z,12.90
2023-03-07T22:04:12.821Z,13.00
2023-03-07T22:06:41.268Z,13.00
2023-03-07T22:09:09.519Z,12.90
2023-03-07T22:11:37.877Z,13.00
2023-03-07T22:14:06.292Z,13.00
2023-03-07T22:16:34.859Z,13.00
2023-03-07T22:19:04.743Z,12.90
2023-03-07T22:21:33.142Z,12.90
2023-03-07T22:24:01.597Z,13.00
2023-03-07T22:26:31.732Z,13.00
2023-03-07T22:29:00.737Z,13.00
2023-03-07T22:31:29.313Z,13.00
2023-03-07T22:33:58.836Z,13.00
2023-03-07T22:36:28.720Z,13.10
2023-03-07T22:38:57.523Z,13.00
2023-03-07T22:41:27.037Z,13.10
2023-03-07T22:43:55.697Z,13.00
2023-03-07T22:46:24.423Z,13.00
2023-03-07T22:48:57.268Z,13.10
2023-03-07T22:51:27.931Z,13.10
2023-03-07T22:53:56.547Z,13.10
2023-03-07T22:56:26.941Z,13.10
2023-03-07T22:58:55.438Z,13.10
2023-03-07T23:01:26.501Z,13.10
2023-03-07T23:03:56.029Z,13.10
2023-03-07T23:06:25.649Z,13.10
2023-03-07T23:08:55.411Z,13.00
2023-03-07T23:11:25.275Z,13.00
2023-03-07T23:13:54.261Z,13.00
2023-03-07T23:16:24.507Z,13.00
2023-03-07T23:18:55.096Z,13.10
2023-03-07T23:21:25.723Z,13.00
2023-03-07T23:23:56.178Z,13.00
2023-03-07T23:26:27.544Z,13.00
2023-03-07T23:28:56.152Z,12.90
2023-03-07T23:31:26.832Z,12.90
2023-03-07T23:33:56.991Z,12.90
2023-03-07T23:36:25.609Z,12.90
2023-03-07T23:38:55.652Z,12.90
2023-03-07T23:41:24.392Z,12.90
2023-03-07T23:43:53.275Z,13.00
2023-03-07T23:46:21.867Z,13.00
2023-03-07T23:48:50.589Z,13.00
2023-03-07T23:51:19.282Z,13.00
2023-03-07T23:53:47.674Z,12.90
2023-03-07T23:56:17.861Z,12.90
2023-03-07T23:58:49.336Z,12.90
